Time;durP1;ratioP1;P1;durP2;ratioP2;P2;SDS_P1;SDS_P2;PMS_P1;PMS_P2;Temp;Humidity;BMP_temperature;BMP_pressure;BME280_temperature;BME280_humidity;BME280_pressure;Samples;Min_cycle;Max_cycle;Signal;HPM_P1;HPM_P2
2022/05/06 00:01:06;;;;;;;8.23;5.03;;;10.10;99.90;;;;;;5036584;28;20182;-84
2022/05/06 00:03:32;;;;;;;9.97;4.97;;;10.10;99.90;;;;;;5037502;28;20191;-85
2022/05/06 00:05:58;;;;;;;8.43;4.70;;;10.00;99.90;;;;;;5036764;28;20277;-84
2022/05/06 00:08:23;;;;;;;14.97;5.57;;;10.00;99.90;;;;;;5036105;28;20659;-84
2022/05/06 00:10:49;;;;;;;10.47;5.10;;;9.90;99.90;;;;;;5036769;28;20174;-84
2022/05/06 00:13:14;;;;;;;8.70;5.03;;;9.70;99.90;;;;;;5036793;28;20215;-84
2022/05/06 00:15:40;;;;;;;10.23;5.60;;;9.60;99.90;;;;;;5037460;28;20618;-84
2022/05/06 00:18:06;;;;;;;8.27;5.93;;;9.50;99.90;;;;;;5036808;28;20209;-84
2022/05/06 00:20:32;;;;;;;10.73;5.67;;;9.50;99.90;;;;;;5036538;28;20238;-84
2022/05/06 00:22:57;;;;;;;10.10;5.70;;;9.60;99.90;;;;;;5054336;28;20224;-84
2022/05/06 00:25:24;;;;;;;10.83;5.33;;;9.70;99.90;;;;;;5037339;28;20641;-84
2022/05/06 00:27:50;;;;;;;11.27;5.67;;;9.60;99.90;;;;;;5036370;28;20209;-85
2022/05/06 00:30:15;;;;;;;9.63;5.13;;;9.60;99.90;;;;;;5039266;28;20185;-85
2022/05/06 00:32:41;;;;;;;12.30;5.77;;;9.50;99.90;;;;;;5045546;28;20189;-85
2022/05/06 00:35:07;;;;;;;10.90;5.10;;;9.50;99.90;;;;;;5048489;28;20642;-85
2022/05/06 00:37:33;;;;;;;10.57;5.47;;;9.50;99.90;;;;;;5037247;28;20197;-84
2022/05/06 00:39:59;;;;;;;8.73;5.50;;;9.50;99.90;;;;;;5036946;28;20182;-84
2022/05/06 00:42:25;;;;;;;9.70;5.73;;;9.30;99.90;;;;;;5036172;28;20182;-84
2022/05/06 00:44:50;;;;;;;9.90;5.47;;;9.40;99.90;;;;;;5038016;28;20201;-84
2022/05/06 00:47:19;;;;;;;9.00;5.10;;;9.40;99.90;;;;;;5036193;28;20197;-84
2022/05/06 00:49:46;;;;;;;9.37;4.90;;;9.40;99.90;;;;;;5036452;28;20170;-84
2022/05/06 00:52:11;;;;;;;9.00;5.00;;;9.30;99.90;;;;;;5036879;28;20173;-84
2022/05/06 00:54:38;;;;;;;9.80;5.30;;;9.20;99.90;;;;;;5037241;28;20184;-85
2022/05/06 00:57:06;;;;;;;12.60;5.20;;;9.20;99.90;;;;;;5054078;28;20192;-84
2022/05/06 00:59:32;;;;;;;8.47;5.10;;;9.40;99.90;;;;;;5036057;28;20212;-84
2022/05/06 01:01:58;;;;;;;8.90;5.03;;;9.30;99.90;;;;;;5036752;28;20205;-84
2022/05/06 01:04:24;;;;;;;8.33;4.77;;;9.40;99.90;;;;;;5037770;28;20179;-84
2022/05/06 01:06:50;;;;;;;10.33;5.10;;;9.20;99.90;;;;;;5036092;28;20197;-84
2022/05/06 01:09:17;;;;;;;10.40;4.90;;;9.30;99.90;;;;;;5036013;28;20266;-84
2022/05/06 01:11:43;;;;;;;11.60;5.77;;;9.30;99.90;;;;;;5035788;28;20196;-84
2022/05/06 01:14:09;;;;;;;11.03;5.33;;;9.10;99.90;;;;;;5037236;28;20673;-84
2022/05/06 01:16:36;;;;;;;11.50;5.30;;;9.20;99.90;;;;;;5035894;28;20189;-84
2022/05/06 01:19:03;;;;;;;9.53;5.40;;;9.10;99.90;;;;;;5035694;28;20185;-84
2022/05/06 01:21:35;;;;;;;9.50;5.90;;;9.30;99.90;;;;;;5035363;28;20169;-84
2022/05/06 01:24:01;;;;;;;9.37;5.57;;;9.30;99.90;;;;;;5036527;28;20205;-84
2022/05/06 01:26:55;;;;;;;11.77;6.33;;;9.10;99.90;;;;;;5035423;28;20193;-84
2022/05/06 01:29:22;;;;;;;13.17;6.60;;;9.20;99.90;;;;;;5035410;28;20196;-84
2022/05/06 01:31:52;;;;;;;9.80;6.07;;;9.20;99.90;;;;;;5035922;28;20649;-84
2022/05/06 01:34:19;;;;;;;13.13;6.10;;;9.10;99.90;;;;;;5036135;28;20184;-85
2022/05/06 01:36:49;;;;;;;10.37;6.00;;;9.10;99.90;;;;;;5035169;28;20187;-84
2022/05/06 01:39:19;;;;;;;11.00;6.20;;;9.00;99.90;;;;;;5035109;28;20260;-84
2022/05/06 01:41:51;;;;;;;9.57;6.10;;;8.90;99.90;;;;;;5034764;28;20174;-84
2022/05/06 01:44:19;;;;;;;13.23;6.13;;;9.00;99.90;;;;;;5035710;28;20641;-84
2022/05/06 01:46:45;;;;;;;13.10;6.23;;;8.80;99.90;;;;;;5034959;28;20196;-85
2022/05/06 01:49:14;;;;;;;12.97;6.20;;;8.60;99.90;;;;;;5034877;28;20225;-84
2022/05/06 01:51:42;;;;;;;13.00;6.27;;;8.80;99.90;;;;;;5034807;28;20227;-84
2022/05/06 01:54:09;;;;;;;17.90;6.23;;;8.90;99.90;;;;;;5035647;28;20174;-86
2022/05/06 01:56:35;;;;;;;12.10;6.13;;;8.90;99.90;;;;;;5034929;28;20200;-86
2022/05/06 01:59:01;;;;;;;14.23;6.17;;;8.70;99.90;;;;;;5035075;28;20182;-86
2022/05/06 02:01:27;;;;;;;11.30;5.90;;;8.70;99.90;;;;;;5034514;28;20216;-86
2022/05/06 02:06:36;;;;;;;15.00;6.60;;;8.60;99.90;;;;;;5052758;28;20206;-85
2022/05/06 02:09:02;;;;;;;17.23;6.57;;;8.50;99.90;;;;;;5034714;28;20201;-85
2022/05/06 02:11:28;;;;;;;12.13;6.83;;;8.50;99.90;;;;;;5034769;28;20174;-85
2022/05/06 02:13:55;;;;;;;13.33;7.20;;;8.60;99.90;;;;;;5035629;28;20595;-86
2022/05/06 02:16:20;;;;;;;15.77;7.33;;;8.50;99.90;;;;;;5034710;28;20192;-86
2022/05/06 02:18:46;;;;;;;10.33;6.60;;;8.50;99.90;;;;;;5034628;28;20189;-85
2022/05/06 02:21:12;;;;;;;11.87;6.13;;;8.60;99.90;;;;;;5034517;28;20652;-85
2022/05/06 02:23:38;;;;;;;13.37;6.33;;;8.60;99.90;;;;;;5034880;28;20276;-86
2022/05/06 02:26:03;;;;;;;10.90;6.30;;;8.60;99.90;;;;;;5034781;28;20177;-86
2022/05/06 02:28:29;;;;;;;14.90;6.40;;;8.40;99.90;;;;;;5034290;28;20346;-85
2022/05/06 02:33:39;;;;;;;14.43;6.00;;;8.50;99.90;;;;;;5057067;28;20218;-86
2022/05/06 02:36:06;;;;;;;12.17;6.10;;;8.40;99.90;;;;;;5039166;28;20646;-86
2022/05/06 02:38:32;;;;;;;13.70;6.00;;;8.30;99.90;;;;;;5039184;28;20543;-86
2022/05/06 02:40:58;;;;;;;11.30;6.17;;;8.20;99.90;;;;;;5039349;28;20177;-86
2022/05/06 02:43:24;;;;;;;12.63;6.37;;;8.10;99.90;;;;;;5038758;28;20177;-86
2022/05/06 02:45:49;;;;;;;13.80;7.00;;;8.20;99.90;;;;;;5039536;28;20211;-86
2022/05/06 02:48:15;;;;;;;11.80;6.37;;;8.20;99.90;;;;;;5038800;28;20817;-86
2022/05/06 02:50:43;;;;;;;11.53;6.70;;;8.40;99.90;;;;;;5038846;28;20633;-86
2022/05/06 02:53:09;;;;;;;13.20;7.07;;;8.30;99.90;;;;;;5038388;28;20174;-86
2022/05/06 02:55:35;;;;;;;13.37;6.13;;;8.20;99.90;;;;;;5039840;28;20632;-86
2022/05/06 02:58:01;;;;;;;12.90;5.97;;;8.00;99.90;;;;;;5038301;28;20201;-86
2022/05/06 03:00:28;;;;;;;13.57;6.23;;;8.00;99.90;;;;;;5039915;28;20177;-86
2022/05/06 03:02:55;;;;;;;11.97;6.33;;;8.10;99.90;;;;;;5040851;28;20176;-86
2022/05/06 03:05:21;;;;;;;12.50;5.93;;;7.90;99.90;;;;;;5041018;28;20642;-86
2022/05/06 03:07:46;;;;;;;10.30;6.37;;;7.80;99.90;;;;;;5039646;28;20207;-86
2022/05/06 03:10:12;;;;;;;14.30;7.07;;;7.80;99.90;;;;;;5040035;28;20881;-84
2022/05/06 03:12:42;;;;;;;10.30;6.10;;;7.80;99.90;;;;;;5039571;28;20177;-85
2022/05/06 03:15:08;;;;;;;12.73;6.93;;;7.80;99.90;;;;;;5039453;28;20181;-85
2022/05/06 03:17:34;;;;;;;14.33;6.97;;;7.90;99.90;;;;;;5040161;28;20343;-84
2022/05/06 03:20:00;;;;;;;12.77;6.70;;;7.90;99.90;;;;;;5040008;28;20177;-84
2022/05/06 03:22:27;;;;;;;11.53;6.10;;;8.00;99.90;;;;;;5038221;28;20195;-84
2022/05/06 03:24:53;;;;;;;15.07;6.50;;;8.10;99.90;;;;;;5041236;28;20187;-85
2022/05/06 03:30:04;;;;;;;15.73;6.40;;;7.90;99.90;;;;;;5057881;28;20268;-84
2022/05/06 03:32:31;;;;;;;13.97;7.83;;;7.90;99.90;;;;;;5038108;28;20543;-84
2022/05/06 03:34:57;;;;;;;11.03;7.00;;;7.90;99.90;;;;;;5040674;28;20206;-85
2022/05/06 03:37:23;;;;;;;16.70;7.30;;;7.90;99.90;;;;;;5039349;28;20204;-84
2022/05/06 03:39:48;;;;;;;13.73;6.70;;;7.80;99.90;;;;;;5038948;28;20177;-84
2022/05/06 03:42:14;;;;;;;14.33;6.80;;;7.80;99.90;;;;;;5037667;28;20180;-84
2022/05/06 03:44:40;;;;;;;12.87;7.27;;;7.80;99.90;;;;;;5036873;28;20196;-84
2022/05/06 03:47:06;;;;;;;16.77;7.20;;;7.70;99.90;;;;;;5038595;28;20280;-84
2022/05/06 03:49:32;;;;;;;14.17;6.87;;;7.70;99.90;;;;;;5038196;28;20297;-84
2022/05/06 03:51:57;;;;;;;12.47;7.30;;;7.70;99.90;;;;;;5037954;28;20179;-85
2022/05/06 03:54:24;;;;;;;12.70;6.70;;;7.60;99.90;;;;;;5037847;28;20172;-84
2022/05/06 03:56:50;;;;;;;11.67;7.10;;;7.60;99.90;;;;;;5037312;28;20248;-84
2022/05/06 03:59:16;;;;;;;11.80;6.87;;;7.60;99.90;;;;;;5037930;28;20177;-84
2022/05/06 04:01:41;;;;;;;11.93;6.43;;;7.70;99.90;;;;;;5036700;28;20230;-84
2022/05/06 04:04:07;;;;;;;9.10;6.17;;;7.60;99.90;;;;;;5037753;28;20461;-84
2022/05/06 04:06:33;;;;;;;11.30;7.00;;;7.60;99.90;;;;;;5036860;28;20193;-84
2022/05/06 04:08:59;;;;;;;14.63;6.60;;;7.60;99.90;;;;;;5036592;28;20207;-85
2022/05/06 04:11:25;;;;;;;13.73;6.47;;;7.70;99.90;;;;;;5036666;28;20256;-86
2022/05/06 04:13:51;;;;;;;12.70;6.37;;;7.80;99.90;;;;;;5038025;28;20169;-86
2022/05/06 04:16:16;;;;;;;13.17;6.67;;;7.80;99.90;;;;;;5037076;28;20679;-86
2022/05/06 04:18:42;;;;;;;11.73;6.70;;;7.80;99.90;;;;;;5036749;28;20177;-86
2022/05/06 04:23:52;;;;;;;12.03;7.30;;;7.80;99.90;;;;;;5055258;28;20196;-86
2022/05/06 04:26:18;;;;;;;15.60;6.80;;;7.80;99.90;;;;;;5036221;28;20195;-85
2022/05/06 04:28:44;;;;;;;12.67;6.97;;;7.90;99.90;;;;;;5036241;28;20285;-85
2022/05/06 04:31:10;;;;;;;11.03;7.37;;;8.10;99.90;;;;;;5036564;28;20281;-85
2022/05/06 04:33:45;;;;;;;17.70;7.00;;;8.00;99.90;;;;;;5056121;28;20649;-86
2022/05/06 04:36:10;;;;;;;12.67;6.63;;;8.10;99.90;;;;;;5039116;28;20181;-85
2022/05/06 04:38:36;;;;;;;12.13;6.77;;;8.20;99.90;;;;;;5039531;28;20775;-86
2022/05/06 04:41:02;;;;;;;13.40;7.70;;;8.10;99.90;;;;;;5037398;28;20578;-86
2022/05/06 04:43:29;;;;;;;14.10;6.83;;;8.00;99.90;;;;;;5037137;28;20544;-85
2022/05/06 04:45:55;;;;;;;15.83;7.17;;;8.00;99.90;;;;;;5037719;28;20219;-86
2022/05/06 04:48:22;;;;;;;19.73;7.50;;;8.20;99.90;;;;;;5036223;28;20212;-86
2022/05/06 04:50:48;;;;;;;19.00;7.77;;;8.20;99.90;;;;;;5036413;28;20170;-86
2022/05/06 04:53:15;;;;;;;12.37;7.23;;;8.30;99.90;;;;;;5036588;28;20310;-86
2022/05/06 04:55:48;;;;;;;17.53;6.97;;;8.40;99.90;;;;;;5037957;28;20170;-86
2022/05/06 04:58:16;;;;;;;10.53;6.33;;;8.70;99.90;;;;;;5037432;28;20614;-86
2022/05/06 05:00:42;;;;;;;15.93;6.80;;;8.60;99.90;;;;;;5037340;28;20300;-86
2022/05/06 05:03:08;;;;;;;9.47;6.13;;;8.60;99.90;;;;;;5037239;28;20173;-86
2022/05/06 05:05:34;;;;;;;10.97;5.80;;;8.80;99.90;;;;;;5038037;28;20197;-86
2022/05/06 05:08:00;;;;;;;10.83;5.90;;;8.90;99.90;;;;;;5040653;28;20202;-86
2022/05/06 05:10:26;;;;;;;8.13;6.20;;;9.00;99.90;;;;;;5038277;28;20193;-86
2022/05/06 05:12:51;;;;;;;12.23;6.43;;;9.00;99.90;;;;;;5036766;28;20165;-86
2022/05/06 05:15:18;;;;;;;12.13;6.53;;;9.00;99.90;;;;;;5037862;28;20170;-86
2022/05/06 05:17:50;;;;;;;14.27;6.40;;;8.90;99.90;;;;;;5037761;28;20203;-85
2022/05/06 05:20:16;;;;;;;15.53;7.00;;;8.90;99.90;;;;;;5037184;28;20645;-85
2022/05/06 05:22:42;;;;;;;9.30;6.03;;;8.90;99.90;;;;;;5036532;28;20193;-86
2022/05/06 05:25:09;;;;;;;13.57;6.20;;;9.00;99.90;;;;;;5036477;28;20228;-86
2022/05/06 05:27:38;;;;;;;14.67;6.63;;;9.00;99.90;;;;;;5036619;28;20213;-86
2022/05/06 05:30:07;;;;;;;12.20;6.63;;;9.40;99.90;;;;;;5036819;28;20209;-85
2022/05/06 05:32:34;;;;;;;9.97;6.47;;;9.40;99.90;;;;;;5035843;28;20171;-86
2022/05/06 05:34:59;;;;;;;16.83;6.60;;;9.60;99.90;;;;;;5037213;28;20635;-86
2022/05/06 05:37:25;;;;;;;12.30;6.63;;;9.60;99.90;;;;;;5041188;28;20191;-86
2022/05/06 05:39:51;;;;;;;12.20;6.40;;;9.70;99.90;;;;;;5038555;28;20178;-86
2022/05/06 05:42:24;;;;;;;11.43;6.80;;;9.90;99.90;;;;;;5035215;28;20167;-86
2022/05/06 05:50:18;;;;;;;11.70;6.90;;;10.60;99.90;;;;;;5061126;28;20182;-86
2022/05/06 05:52:45;;;;;;;12.83;7.67;;;10.80;99.90;;;;;;5034587;28;20174;-86
2022/05/06 05:55:11;;;;;;;12.63;7.30;;;11.00;99.90;;;;;;5035858;28;20175;-86
2022/05/06 05:57:37;;;;;;;14.20;6.90;;;11.40;99.90;;;;;;5054100;28;20710;-87
2022/05/06 06:00:05;;;;;;;9.27;6.80;;;11.70;99.90;;;;;;5034701;28;20204;-86
2022/05/06 06:02:31;;;;;;;9.23;6.67;;;12.10;99.90;;;;;;5034712;28;20332;-86
2022/05/06 06:04:57;;;;;;;8.87;6.23;;;12.40;99.90;;;;;;5035492;28;20256;-86
2022/05/06 06:07:23;;;;;;;11.67;6.47;;;13.20;99.90;;;;;;5034941;28;20276;-86
2022/05/06 06:09:49;;;;;;;11.90;6.87;;;13.50;99.90;;;;;;5034968;28;20165;-87
2022/05/06 06:12:15;;;;;;;11.33;6.23;;;13.60;99.90;;;;;;5035307;28;20265;-83
2022/05/06 06:14:41;;;;;;;11.97;6.73;;;13.80;99.90;;;;;;5036310;28;20173;-83
2022/05/06 06:17:06;;;;;;;13.67;6.50;;;14.50;99.90;;;;;;5035012;28;20185;-82
2022/05/06 06:19:32;;;;;;;11.67;6.33;;;15.10;99.90;;;;;;5034645;28;20201;-81
2022/05/06 06:21:58;;;;;;;11.85;6.75;;;14.90;99.90;;;;;;5034351;28;20170;-81
2022/05/06 06:24:24;;;;;;;17.80;7.05;;;14.90;99.90;;;;;;5035286;28;20177;-81
2022/05/06 06:26:50;;;;;;;13.50;7.32;;;14.90;99.90;;;;;;5037058;28;20246;-82
2022/05/06 06:29:15;;;;;;;10.50;6.75;;;15.30;99.90;;;;;;5036222;28;20208;-81
2022/05/06 06:31:41;;;;;;;15.23;7.57;;;15.80;99.90;;;;;;5034743;28;20169;-81
2022/05/06 06:34:06;;;;;;;11.73;7.07;;;16.00;99.90;;;;;;5036816;28;20171;-81
2022/05/06 06:36:32;;;;;;;12.40;7.70;;;16.00;99.90;;;;;;5036779;28;20186;-81
2022/05/06 06:38:58;;;;;;;12.23;7.57;;;16.40;99.90;;;;;;5035457;28;20184;-81
2022/05/06 06:41:24;;;;;;;10.80;7.15;;;16.00;99.90;;;;;;5036246;28;20177;-82
2022/05/06 06:43:50;;;;;;;11.85;8.10;;;16.00;99.90;;;;;;5037360;28;20227;-81
2022/05/06 06:46:16;;;;;;;12.85;8.00;;;16.60;99.90;;;;;;5035554;28;20169;-81
2022/05/06 06:48:42;;;;;;;15.38;8.20;;;17.00;98.70;;;;;;5033960;28;20283;-80
2022/05/06 06:51:09;;;;;;;17.45;8.48;;;17.20;97.50;;;;;;5034578;28;20169;-81
2022/05/06 06:53:35;;;;;;;15.80;8.55;;;17.30;98.20;;;;;;5036936;28;20258;-81
2022/05/06 06:56:00;;;;;;;15.18;8.50;;;17.40;97.20;;;;;;5037852;28;20208;-81
2022/05/06 06:58:26;;;;;;;20.75;8.23;;;17.20;96.90;;;;;;5037681;28;20180;-81
2022/05/06 07:00:53;;;;;;;12.70;7.93;;;17.50;97.50;;;;;;5037677;28;20177;-81
2022/05/06 07:03:19;;;;;;;17.92;8.18;;;17.20;95.90;;;;;;5034725;28;20177;-80
2022/05/06 07:13:57;;;;;;;18.27;8.40;;;18.00;94.10;;;;;;5052547;28;20176;-79
2022/05/06 07:16:23;;;;;;;14.25;8.32;;;18.50;94.30;;;;;;5033752;28;20259;-80
2022/05/06 07:18:50;;;;;;;19.85;9.00;;;18.50;92.30;;;;;;5036617;28;20555;-80
2022/05/06 07:21:16;;;;;;;11.80;8.15;;;18.80;92.50;;;;;;5037397;28;20180;-80
2022/05/06 07:23:41;;;;;;;16.35;8.90;;;19.10;90.10;;;;;;5036810;28;20205;-80
2022/05/06 07:26:07;;;;;;;15.15;8.20;;;19.00;92.30;;;;;;5037244;28;20176;-80
2022/05/06 07:28:33;;;;;;;19.27;9.10;;;19.30;90.70;;;;;;5036150;28;20197;-80
2022/05/06 07:30:58;;;;;;;17.50;8.30;;;19.40;90.90;;;;;;5037257;28;20207;-80
2022/05/06 07:33:24;;;;;;;20.83;8.00;;;19.60;90.50;;;;;;5037210;28;20175;-80
2022/05/06 07:35:50;;;;;;;17.77;8.73;;;20.30;90.90;;;;;;5038291;28;20175;-80
2022/05/06 07:38:15;;;;;;;19.33;8.27;;;20.20;86.70;;;;;;5038637;28;20235;-80
2022/05/06 07:40:41;;;;;;;14.25;9.25;;;20.00;88.30;;;;;;5036832;28;20633;-80
2022/05/06 07:43:06;;;;;;;15.82;8.43;;;19.60;87.20;;;;;;5037820;28;20200;-81
2022/05/06 07:45:32;;;;;;;16.33;8.50;;;20.10;87.70;;;;;;5038690;28;20591;-80
2022/05/06 07:48:00;;;;;;;16.05;8.02;;;20.40;85.10;;;;;;5036718;28;20225;-81
2022/05/06 07:50:26;;;;;;;20.92;8.73;;;20.40;84.40;;;;;;5036670;28;20177;-81
2022/05/06 07:52:52;;;;;;;17.35;8.52;;;21.00;83.70;;;;;;5036834;28;20169;-81
2022/05/06 07:55:19;;;;;;;17.38;9.02;;;20.80;83.10;;;;;;5036267;28;20200;-81
2022/05/06 07:57:46;;;;;;;14.38;8.10;;;20.90;82.20;;;;;;5035868;28;20193;-81
2022/05/06 08:00:12;;;;;;;19.20;8.57;;;20.70;83.60;;;;;;5036711;28;20184;-81
2022/05/06 08:05:27;;;;;;;14.70;8.25;;;21.30;80.80;;;;;;5055138;28;20565;-81
2022/05/06 08:07:54;;;;;;;11.05;7.38;;;21.60;79.50;;;;;;5036914;28;20584;-81
2022/05/06 08:10:20;;;;;;;14.20;8.00;;;21.50;80.50;;;;;;5036468;28;20230;-81
2022/05/06 08:12:46;;;;;;;15.98;7.80;;;21.60;81.30;;;;;;5036900;28;20566;-81
2022/05/06 08:15:12;;;;;;;14.00;8.40;;;22.20;78.80;;;;;;5038864;28;20629;-81
2022/05/06 08:17:41;;;;;;;15.00;8.63;;;22.10;77.40;;;;;;5039361;28;20200;-81
2022/05/06 08:20:10;;;;;;;16.92;8.25;;;21.80;78.80;;;;;;5036185;28;20626;-82
2022/05/06 08:22:36;;;;;;;13.82;8.60;;;21.80;79.10;;;;;;5036459;28;20185;-82
2022/05/06 08:25:07;;;;;;;16.42;9.98;;;22.10;80.40;;;;;;5037138;28;20172;-81
2022/05/06 08:27:42;;;;;;;19.45;10.85;;;22.40;77.90;;;;;;5036241;28;20272;-81
2022/05/06 08:30:09;;;;;;;20.73;10.55;;;22.60;79.60;;;;;;5035715;28;20200;-82
2022/05/06 08:32:35;;;;;;;17.38;9.52;;;22.40;80.60;;;;;;5035444;28;20239;-81
2022/05/06 08:35:01;;;;;;;22.15;10.00;;;22.70;77.90;;;;;;5036598;28;20169;-82
2022/05/06 08:37:26;;;;;;;19.83;11.65;;;22.70;79.70;;;;;;5036508;28;20205;-81
2022/05/06 08:39:52;;;;;;;19.73;11.88;;;22.60;77.30;;;;;;5036791;28;20173;-82
2022/05/06 08:42:22;;;;;;;20.75;11.80;;;21.60;78.40;;;;;;5036284;28;20402;-81
2022/05/06 08:53:05;;;;;;;17.90;12.23;;;23.40;77.70;;;;;;5061089;28;20180;-82
2022/05/06 08:55:31;;;;;;;16.75;11.68;;;22.50;78.40;;;;;;5044051;28;20173;-81
2022/05/06 08:57:58;;;;;;;20.23;11.98;;;22.80;77.40;;;;;;5039113;28;20235;-87
2022/05/06 09:00:24;;;;;;;22.33;12.80;;;23.20;78.70;;;;;;5036728;28;20181;-87
2022/05/06 09:02:51;;;;;;;20.30;11.70;;;23.90;77.20;;;;;;5034830;28;20181;-86
2022/05/06 09:05:18;;;;;;;21.77;13.27;;;23.60;76.80;;;;;;5034216;28;20181;-86
2022/05/06 09:08:00;;;;;;;21.40;14.65;;;23.60;75.40;;;;;;5034665;28;20208;-86
2022/05/06 09:10:27;;;;;;;21.05;13.43;;;22.40;76.70;;;;;;5034921;28;20260;-86
2022/05/06 09:12:59;;;;;;;26.73;14.48;;;22.70;78.40;;;;;;5035416;28;20270;-87
2022/05/06 09:18:17;;;;;;;24.15;14.93;;;24.40;75.80;;;;;;5053737;28;20208;-88
2022/05/06 09:20:43;;;;;;;23.02;15.43;;;24.30;72.50;;;;;;5036315;28;20204;-87
2022/05/06 09:23:25;;;;;;;23.40;15.98;;;23.70;72.50;;;;;;5055085;28;20197;-88
2022/05/06 09:25:53;;;;;;;27.40;16.55;;;23.30;75.90;;;;;;5036084;28;20256;-86
2022/05/06 09:28:27;;;;;;;25.80;16.27;;;22.60;75.20;;;;;;5035256;28;20231;-86
2022/05/06 09:31:11;;;;;;;22.58;15.52;;;22.30;76.30;;;;;;5037007;28;20172;-86
2022/05/06 09:33:41;;;;;;;24.27;16.67;;;22.00;76.00;;;;;;5037048;28;20264;-85
2022/05/06 09:36:24;;;;;;;23.88;15.00;;;22.50;79.00;;;;;;5037373;28;20251;-85
2022/05/06 09:39:16;;;;;;;25.10;15.60;;;23.80;77.20;;;;;;5017026;28;20268;-85
2022/05/06 09:41:43;;;;;;;29.35;16.17;;;23.80;78.30;;;;;;5022009;28;20181;-86
2022/05/06 09:44:10;;;;;;;30.90;17.30;;;24.30;76.20;;;;;;5037367;28;20169;-87
2022/05/06 09:46:36;;;;;;;29.00;17.25;;;24.30;76.30;;;;;;5038522;28;20287;-86
2022/05/06 09:49:03;;;;;;;29.33;16.70;;;23.80;76.10;;;;;;5038069;28;20193;-86
2022/05/06 09:51:34;;;;;;;23.40;16.35;;;23.30;77.10;;;;;;5035627;28;20170;-85
2022/05/06 09:54:03;;;;;;;24.48;14.30;;;22.90;77.00;;;;;;5035828;28;20644;-85
2022/05/06 09:56:29;;;;;;;28.98;17.15;;;22.80;76.80;;;;;;5034341;28;20228;-86
2022/05/06 09:58:57;;;;;;;32.65;17.98;;;22.40;77.90;;;;;;5035635;28;20181;-85
2022/05/06 10:01:23;;;;;;;27.38;18.23;;;22.30;78.30;;;;;;5036459;28;20200;-86
2022/05/06 10:03:51;;;;;;;28.75;18.02;;;21.90;78.10;;;;;;5034370;28;20177;-87
2022/05/06 10:06:21;;;;;;;30.95;17.42;;;21.80;79.80;;;;;;5035749;28;20180;-89
2022/05/06 10:08:50;;;;;;;26.85;15.30;;;21.00;81.70;;;;;;5035473;28;20228;-86
2022/05/06 10:11:22;;;;;;;27.02;16.05;;;21.40;80.10;;;;;;5057229;23;20217;-82
2022/05/06 10:13:50;;;;;;;26.33;16.50;;;21.60;79.80;;;;;;5055758;28;20197;-82
2022/05/06 10:16:15;;;;;;;22.83;14.27;;;22.40;80.30;;;;;;5053993;28;20165;-82
2022/05/06 10:18:42;;;;;;;25.85;14.50;;;23.40;77.60;;;;;;5055931;28;20223;-82
2022/05/06 10:21:09;;;;;;;30.65;15.95;;;23.00;77.20;;;;;;5059145;28;20649;-83
2022/05/06 10:23:43;;;;;;;29.55;16.30;;;22.70;77.00;;;;;;5052914;28;20196;-83
2022/05/06 10:26:29;;;;;;;23.73;14.93;;;21.90;77.30;;;;;;5059318;22;20269;-85
2022/05/06 10:34:23;;;;;;;26.00;13.93;;;21.30;79.10;;;;;;5051955;28;20176;-84
2022/05/06 10:36:51;;;;;;;26.13;14.80;;;21.10;79.80;;;;;;5054944;28;20189;-83
2022/05/06 10:39:26;;;;;;;17.80;11.57;;;21.60;77.60;;;;;;5037313;28;20201;-84
2022/05/06 10:42:12;;;;;;;16.27;9.80;;;22.30;78.50;;;;;;5052340;28;20187;-83
2022/05/06 10:44:50;;;;;;;13.32;7.53;;;22.70;74.40;;;;;;5054587;28;20191;-81
2022/05/06 10:47:16;;;;;;;12.82;7.88;;;24.10;73.80;;;;;;5051383;28;20196;-82
2022/05/06 10:49:43;;;;;;;17.60;11.43;;;23.80;74.00;;;;;;5033834;28;20205;-82
2022/05/06 10:52:33;;;;;;;17.75;11.32;;;24.80;71.10;;;;;;5033199;28;20602;-84
2022/05/06 10:55:00;;;;;;;14.65;8.68;;;25.80;69.70;;;;;;5050184;28;20208;-82
2022/05/06 10:57:50;;;;;;;11.65;7.25;;;24.20;71.40;;;;;;5055591;28;20192;-82
2022/05/06 11:00:16;;;;;;;12.20;7.47;;;23.80;70.10;;;;;;5056017;28;20695;-82
2022/05/06 11:02:42;;;;;;;13.32;7.53;;;23.50;69.30;;;;;;5054722;28;20173;-82
2022/05/06 11:05:07;;;;;;;14.18;7.95;;;24.10;69.30;;;;;;5055235;28;20227;-83
2022/05/06 11:07:35;;;;;;;23.73;12.40;;;24.70;71.70;;;;;;5054750;28;20190;-81
2022/05/06 11:10:27;;;;;;;20.13;12.93;;;24.40;72.70;;;;;;5055840;28;20161;-82
2022/05/06 11:12:59;;;;;;;21.13;11.65;;;24.40;72.30;;;;;;5054655;28;20236;-80
2022/05/06 11:15:31;;;;;;;26.23;11.73;;;23.40;73.20;;;;;;5036720;28;20264;-83
2022/05/06 11:18:04;;;;;;;24.05;11.82;;;22.90;73.50;;;;;;5054774;28;20725;-81
2022/05/06 11:20:33;;;;;;;27.70;12.73;;;22.40;74.80;;;;;;5055092;28;20165;-83
2022/05/06 11:23:08;;;;;;;15.20;10.83;;;22.40;75.00;;;;;;5034715;28;20419;-82
2022/05/06 11:25:37;;;;;;;17.95;11.05;;;22.20;74.60;;;;;;5053809;28;20199;-82
2022/05/06 11:28:11;;;;;;;18.95;9.15;;;22.10;73.90;;;;;;5053796;28;20232;-81
2022/05/06 11:30:37;;;;;;;14.25;8.23;;;21.70;74.50;;;;;;5052213;28;20260;-81
2022/05/06 11:33:03;;;;;;;15.75;7.57;;;22.60;74.60;;;;;;5053316;28;20254;-81
2022/05/06 11:35:40;;;;;;;11.65;7.35;;;22.40;73.40;;;;;;5053497;28;20174;-83
2022/05/06 11:38:06;;;;;;;15.27;8.50;;;22.00;72.10;;;;;;5053421;28;20657;-82
2022/05/06 11:40:36;;;;;;;13.50;8.02;;;23.10;71.80;;;;;;5053238;28;20188;-80
2022/05/06 11:43:30;;;;;;;11.68;7.13;;;23.80;70.20;;;;;;5051612;28;20196;-80
2022/05/06 11:48:44;;;;;;;16.20;9.63;;;23.50;68.90;;;;;;5052940;28;20235;-82
2022/05/06 11:51:33;;;;;;;13.95;9.25;;;23.10;68.80;;;;;;5053094;28;20189;-82
2022/05/06 11:54:00;;;;;;;13.90;8.93;;;23.80;71.20;;;;;;5052961;28;20227;-81
2022/05/06 11:56:27;;;;;;;16.95;9.15;;;24.00;70.00;;;;;;5054245;28;20276;-80
2022/05/06 11:58:56;;;;;;;18.20;8.77;;;23.80;70.10;;;;;;5056877;28;20169;-81
2022/05/06 12:01:25;;;;;;;14.80;9.98;;;22.80;71.80;;;;;;5038037;28;20173;-81
2022/05/06 12:03:51;;;;;;;14.57;9.43;;;22.20;71.70;;;;;;5054321;28;20196;-81
2022/05/06 12:06:26;;;;;;;14.95;8.73;;;21.90;73.40;;;;;;5036415;28;20232;-80
2022/05/06 12:09:05;;;;;;;13.02;8.48;;;22.20;74.20;;;;;;5055261;28;20199;-82
2022/05/06 12:11:31;;;;;;;14.52;7.55;;;21.80;73.90;;;;;;5036171;28;20181;-82
2022/05/06 12:14:17;;;;;;;11.20;6.63;;;22.70;72.50;;;;;;5054763;28;20549;-82
2022/05/06 12:16:56;;;;;;;9.50;6.45;;;22.90;69.80;;;;;;5054097;28;20181;-80
2022/05/06 12:19:42;;;;;;;13.18;7.50;;;23.30;69.50;;;;;;5054237;28;20215;-81
2022/05/06 12:22:12;;;;;;;11.65;7.72;;;23.60;69.80;;;;;;5053497;28;20169;-82
2022/05/06 12:24:50;;;;;;;12.43;7.30;;;22.70;72.90;;;;;;5053982;28;20204;-81
2022/05/06 12:27:25;;;;;;;15.50;6.90;;;23.10;69.10;;;;;;5055323;28;20208;-81
2022/05/06 12:29:51;;;;;;;10.60;7.60;;;23.30;68.20;;;;;;5054036;28;20200;-80
2022/05/06 12:32:16;;;;;;;8.65;6.10;;;23.10;72.60;;;;;;5052000;28;20177;-82
2022/05/06 12:34:42;;;;;;;10.80;6.57;;;23.20;72.90;;;;;;5036206;28;20653;-81
2022/05/06 12:37:13;;;;;;;7.88;5.95;;;23.40;70.40;;;;;;5054041;28;20185;-83
2022/05/06 12:39:45;;;;;;;12.63;6.68;;;23.60;71.00;;;;;;5054210;28;20243;-81
2022/05/06 12:42:15;;;;;;;9.35;5.75;;;23.50;70.10;;;;;;5051681;28;20165;-81
2022/05/06 12:44:40;;;;;;;9.32;5.60;;;23.20;69.10;;;;;;5054172;28;20534;-82
2022/05/06 12:49:39;;;;;;;12.10;5.53;;;23.20;69.20;;;;;;5053652;28;20196;-82
2022/05/06 12:50:04;;;;;;;7.50;5.75;;;23.10;69.00;;;;;;5053452;28;20181;-83
2022/05/06 12:52:31;;;;;;;10.35;5.55;;;22.80;67.50;;;;;;5053322;28;20200;-80
2022/05/06 12:54:57;;;;;;;14.60;4.85;;;22.20;67.20;;;;;;5036203;28;20201;-83
2022/05/06 12:57:24;;;;;;;12.48;5.18;;;22.30;69.80;;;;;;5035646;28;20235;-81
2022/05/06 12:59:50;;;;;;;10.18;4.15;;;22.60;68.70;;;;;;5035866;28;20183;-82
2022/05/06 13:02:15;;;;;;;7.68;4.28;;;22.80;67.70;;;;;;5035285;28;20205;-82
2022/05/06 13:04:41;;;;;;;5.53;4.55;;;23.00;68.10;;;;;;5053473;28;20212;-81
2022/05/06 13:07:06;;;;;;;11.43;4.90;;;23.10;68.60;;;;;;5035583;28;20200;-82
2022/05/06 13:09:32;;;;;;;7.82;4.82;;;23.40;69.00;;;;;;5035609;28;20205;-82
2022/05/06 13:11:57;;;;;;;7.70;5.38;;;23.30;68.70;;;;;;5052628;28;20172;-81
2022/05/06 13:14:23;;;;;;;7.57;4.40;;;23.30;69.30;;;;;;5035367;28;20169;-82
2022/05/06 13:16:49;;;;;;;5.75;4.05;;;22.50;67.00;;;;;;5052957;28;20196;-82
2022/05/06 13:19:15;;;;;;;7.53;4.00;;;22.30;67.10;;;;;;5053112;28;20182;-81
2022/05/06 13:21:40;;;;;;;6.07;3.50;;;23.00;68.40;;;;;;5052429;28;20173;-81
2022/05/06 13:24:09;;;;;;;7.32;4.40;;;22.90;69.70;;;;;;5050677;28;20166;-83
2022/05/06 13:26:38;;;;;;;5.95;3.92;;;22.60;68.70;;;;;;5052841;28;20220;-83
2022/05/06 13:29:05;;;;;;;7.68;4.38;;;22.70;68.90;;;;;;5052561;28;20197;-82
2022/05/06 13:31:31;;;;;;;5.07;4.00;;;22.80;69.10;;;;;;5031034;28;20177;-82